Aérodrome :
LOGIN :

S'inscrire | Disclaimer

   EN    FR    IT 

 










Légende :    VFR   VFR Marginal   IFR   IFR Intensif   IFR Très Intensif
Visi : 
Plafond : 
>= 8 km
>= 3000ft
5 à 8 km
1000 à 3000 ft
1500m à 5 km
500 à 1000 ft
800 à 1500m
200 à 500 ft
< 800m
< 200 ft
Symboles :   Orages  Brouillard  Fortes neiges  Fortes précipitations  Vent > 20 kt
SIGMETs :   Divers  Orages  Givrage  Turbulence  Onde Orograph.  Cendres Volcan.






- Altitude de l'aérodrome : 141 ft
- Code IATA : SKS


EKSP - Srydstrup Vojens

DERNIER METAR :
  • 272150Z 17011KT 9999 FEW024 BKN075 BKN150 09/07 Q0999

METARs EXPIRÉS :
  • 272120Z 18011KT 9999 FEW024 BKN075 BKN170 09/07 Q0999
  • 272050Z 18012KT 9999 FEW024 SCT170 BKN200 09/07 Q0999

TAF TAF EKSP
Valide du 27 à 21h jusqu'au 28 à 21h UTC


272006Z 2721/2821 17012KT 9999 SCT020 BKN045
BECMG 2721/2724 18015G26KT 3000 RA BKN006
TEMPO 2800/2802 19018KT 8000 -RA BKN012
BECMG 2802/2805 21012KT 9999 NSW SCT020 SCT050
TEMPO 2805/2810 -SHRA SCT020TCU
TEMPO 2810/2821 20018G28KT 4000 SHRA BKN010 BKN020CB



MET'MAP, la Météo Aéronautique d'un coup d'oeil ! - Copyright ORBIFLY Décembre 2007 - Disclaimer

ORBIFLY MET'MAP TEAM :

Programmation & Développement : Alexandra Zaïnal
Sur une idée originale de : Baudouin d'Aumeries
Assistance à la programmation : Marc-Olivier Méhu
Soutien technique & logistique : Manuel Goepfert

Contact : metmap@orbifly.com




SOURCES & CREDITS :

   NOAA